Tiempo atmosférico en la estación meteorológica de A Lama, Pontevedra (395 m.)



Fecha
DESCASC
Temp. máxima en grados centígrados (hora)
DESCASC
Temp. mínima en grados centígrados (hora)
DESCASC
Temp. media en grados centígrados
DESCASC
Racha de viento máxima en m/sg (hora)
DESCASC
Velocidad máxima media en intervalos de 10 minutos(hora)
DESCASC
Precipitaciones diarias en mm
DESCASC
Precipitaciones de 00:00 a 06:00 en mm
DESCASC
Precipitaciones de 06:00 a 12:00 en mm
DESCASC
Precipitaciones de 12:00 a 18:00 en mm
DESCASC
Precipitaciones de 18:00 a 24:00 en mm
DESCASC
19-01-2020 11.1 (15:30) 5 (22:20) 8.1 15.83 (10:50) 6.94 (11:00) 0 0 0 0 0
18-01-2020 11.6 (12:40) 6.5 (00:00) 9.1 13.61 (12:50) 6.94 (13:20) 14 0 3 7 4
17-01-2020 9.5 (15:40) 5 (10:00) 7.3 8.06 (00:30) 3.33 (00:40) 1.6 1 0.6 0 0
16-01-2020 12.7 (09:50) 8.4 (00:00) 10.5 16.39 (04:30) 6.67 (12:00) 52.8 4 8.2 26.8 13.8
15-01-2020 13.1 (15:40) 8 (00:00) 10.6 16.39 (03:10) 6.67 (02:30) 23.2 15 8.2 0 0
14-01-2020 12 (14:30) 8.6 (00:00) 10.3 14.44 (23:00) 6.39 (17:30) 0.6 0.2 0 0 0.4
13-01-2020 10.3 (13:50) 4.1 (00:00) 7.2 11.11 (12:40) 4.72 (12:50) 0 0 0 0 0
12-01-2020 12.4 (14:10) -1.7 (04:10) 5.3 3.89 (15:40) 1.94 (13:40) 0 0 0 0 0
11-01-2020 12.4 (14:40) -0.6 (-00:0) 5.9 4.44 (11:20) 2.22 (11:30) 0 0 0 0 0
10-01-2020 10.3 (16:20) 0.2 (00:00) 5.3 6.39 (13:00) 3.33 (11:50) 0.4 0.2 0.2 0 0
09-01-2020 11.6 (12:50) 4.3 (00:00) 8 13.89 (14:40) 7.22 (14:50) 8.4 1 4.2 3 0.2
08-01-2020 14.5 (14:20) 2.6 (00:00) 8.5 3.61 (15:00) 1.94 (14:50) 0.8 0 0 0.4 0.4
07-01-2020 13.4 (15:20) -1.4 (-00:0) 6 3.33 (16:00) 2.22 (09:50) 0 0 0 0 0
06-01-2020 11 (15:00) -1.2 (-00:0) 4.9 6.11 (22:20) 2.22 (15:40) 0.2 0 0.2 0 0
05-01-2020 12.3 (15:00) -1.6 (-00:0) 5.4 9.72 (01:00) 5.83 (00:50) 0 0 0 0 0
04-01-2020 9.5 (14:50) 4.5 (00:00) 7 10.83 (08:00) 6.11 (05:00) 0 0 0 0 0
03-01-2020 12.2 (16:10) 4.3 (00:00) 8.3 6.94 (22:20) 3.89 (22:20) 7.2 0.4 6.8 0 0
02-01-2020 8.4 (12:30) -1.6 (-00:0) 3.4 6.39 (14:30) 2.78 (16:10) 0 0 0 0 0
01-01-2020 13.9 (13:40) -3.7 (-00:0) 5.1 3.61 (14:50) 2.5 (14:10) 0 0 0 0 0
31-12-2019 14.7 (15:30) -0.6 (-00:0) 7 4.17 (06:40) 1.94 (06:50) 0 0 0 0 0
30-12-2019 -- (--) -- (--) -- -- (--) -- (--) -- 0 0 -- 0
29-12-2019 22.6 (15:00) 3.9 (00:00) 13.3 7.78 (00:10) 3.61 (12:30) 0 0 0 0 0
28-12-2019 20 (14:40) 3.2 (00:00) 11.6 7.5 (12:20) 3.61 (13:10) 0 0 0 0 0
27-12-2019 15.5 (15:30) -0.5 (-00:0) 7.5 10 (06:20) 4.72 (21:50) 0 0 0 0 0
26-12-2019 12 (13:20) 0.4 (00:00) 6.2 7.22 (19:30) 3.89 (19:30) 0 0 0 0 0
25-12-2019 18.5 (13:40) 5.8 (00:00) 12.2 13.61 (20:30) 5.56 (18:40) 3.2 0 0 0 3.2
24-12-2019 17.3 (14:00) 12.3 (10:20) 14.8 8.06 (22:30) 5 (22:30) 11.6 10.6 1 0 0
23-12-2019 12.7 (23:59) 7.6 (00:00) 10.1 7.5 (21:40) 3.33 (22:30) 16.4 0 0.2 7.4 8.8

Gráficas

Temp. máximas Temp. mínimas Temp. medias Precipitaciones Rachas de viento máximas Velocidades máximas media en intervalos de 10 minutos

Datos horarios

Fecha y hora oficial Temperatura (ºC) Velocidad del viento (km/h) Dirección del viento Racha (km/h) Dirección de racha Precipitación (mm) Presión (hPa) Tendencia (hPa) Humedad (%)
2020-01-21 23:00:00 6.4 12 Nordeste 26 Este 0 -- -- 71
2020-01-21 22:00:00 6.1 4 Oeste 18 Noroeste 0 -- -- 73
2020-01-21 21:00:00 6.3 6 Norte 31 Norte 0 -- -- 72
2020-01-21 20:00:00 6.6 7 Noroeste 22 Noroeste 0 -- -- 71
2020-01-21 19:00:00 6.8 18 Noroeste 34 Noroeste 0 -- -- 71
2020-01-21 18:00:00 7.5 12 Norte 29 Norte 0 -- -- 69
2020-01-21 17:00:00 8.3 14 Nordeste 39 Nordeste 0 -- -- 64
2020-01-21 16:00:00 9.1 12 Nordeste 31 Nordeste 0 -- -- 61
2020-01-21 15:00:00 9.5 11 Norte 47 Nordeste 0 -- -- 60
2020-01-21 14:00:00 8.7 20 Este 42 Este 0 -- -- 61
2020-01-21 13:00:00 9.1 7 Este 38 Sudeste 0 -- -- 60
2020-01-21 12:00:00 8.5 10 Este 28 Este 0 -- -- 61
2020-01-21 11:00:00 7.2 6 Este 27 Este 0 -- -- 65
2020-01-21 10:00:00 5.7 9 Este 40 Este 0 -- -- 69
2020-01-21 09:00:00 4.6 19 Este 39 Este 0 -- -- 72
2020-01-21 08:00:00 4.5 17 Este 40 Este 0 -- -- 70
2020-01-21 07:00:00 4.6 19 Este 38 Este 0 -- -- 68
2020-01-21 06:00:00 4.3 14 Este 47 Este 0 -- -- 68
2020-01-21 05:00:00 3.7 23 Este 57 Este 0 -- -- 70
2020-01-21 04:00:00 3.7 27 Este 57 Este 0 -- -- 68
2020-01-21 03:00:00 3.8 30 Este 57 Este 0 -- -- 66
2020-01-21 02:00:00 3.8 30 Este 58 Este 0 -- -- 65
2020-01-21 01:00:00 3.8 34 Este 63 Este 0 -- -- 66
2020-01-21 00:00:00 3.9 39 Este 66 Este 0 -- -- 65
2020-01-20 23:00:00 4.4 40 Este 61 Este 0 -- -- 60
2020-01-20 22:00:00 4.8 12 Noroeste 26 Nordeste 0 -- -- 56
2020-01-20 21:00:00 4.7 17 Este 58 Este 0 -- -- 58
2020-01-20 20:00:00 5.1 34 Este 66 Este 0 -- -- 58
2020-01-20 19:00:00 5.5 24 Este 54 Este 0 -- -- 59
2020-01-20 18:00:00 6.9 28 Este 55 Este 0 -- -- 52
2020-01-20 17:00:00 7.8 24 Este 58 Este 0 -- -- 47
2020-01-20 16:00:00 8.3 27 Este 51 Este 0 -- -- 47
2020-01-20 15:00:00 8.4 26 Este 50 Este 0 -- -- 46
2020-01-20 14:00:00 9 25 Este 54 Este 0 -- -- 44
2020-01-20 13:00:00 8.1 24 Este 60 Este 0 -- -- 46
2020-01-20 12:00:00 7.3 24 Este 51 Nordeste 0 -- -- 50
2020-01-20 11:00:00 5.9 14 Nordeste 43 Este 0 -- -- 57
2020-01-20 10:00:00 4.8 14 Este 34 Nordeste 0 -- -- 64
2020-01-20 09:00:00 3.9 14 Nordeste 36 Este 0 -- -- 70
2020-01-20 08:00:00 3.8 10 Nordeste 27 Nordeste 0 -- -- 73
2020-01-20 07:00:00 4.2 12 Nordeste 39 Nordeste 0 -- -- 69
2020-01-20 06:00:00 4.5 12 Nordeste 38 Nordeste 0 -- -- 68
2020-01-20 05:00:00 4.8 12 Nordeste 47 Nordeste 0 -- -- 66
2020-01-20 04:00:00 6 23 Este 50 Nordeste 0 -- -- 55
2020-01-20 03:00:00 5.5 19 Nordeste 45 Este 0 -- -- 61
2020-01-20 02:00:00 5.2 14 Nordeste 38 Nordeste 0 -- -- 61
2020-01-20 01:00:00 5.2 18 Este 37 Este 0 -- -- 60
2020-01-20 00:00:00 5.2 17 Este 43 Este 0 -- -- 61
2020-01-19 23:00:00 5.2 17 Nordeste 48 Este 0 -- -- 59
2020-01-19 22:00:00 5.1 15 Nordeste 41 Nordeste 0 -- -- 63
2020-01-19 21:00:00 5.7 14 Nordeste 39 Nordeste 0 -- -- 61
2020-01-19 20:00:00 6.4 10 Nordeste 38 Nordeste 0 -- -- 60
2020-01-19 19:00:00 6.9 8 Norte 32 Este 0 -- -- 62
2020-01-19 18:00:00 8.2 10 Nordeste 32 Norte 0 -- -- 59
2020-01-19 17:00:00 9.8 8 Nordeste 36 Nordeste 0 -- -- 52
2020-01-19 16:00:00 11 10 Norte 33 Nordeste 0 -- -- 52
2020-01-19 15:00:00 10.8 17 Nordeste 48 Nordeste 0 -- -- 51
2020-01-19 14:00:00 10.4 20 Este 49 Este 0 -- -- 56
2020-01-19 13:00:00 10.2 17 Este 49 Este 0 -- -- 56
2020-01-19 12:00:00 9.4 22 Este 51 Este 0 -- -- 56
2020-01-19 11:00:00 8.1 25 Este 57 Este 0 -- -- 65
2020-01-19 10:00:00 7.3 21 Este 48 Este 0 -- -- 69
2020-01-19 09:00:00 7.3 14 Nordeste 38 Nordeste 0 -- -- 77
2020-01-19 08:00:00 7.8 13 Nordeste 37 Este 0 -- -- 79
2020-01-19 07:00:00 8.2 14 Nordeste 39 Este 0 -- -- 78
2020-01-19 06:00:00 8.5 11 Nordeste 32 Nordeste 0 -- -- 81
2020-01-19 05:00:00 8.8 9 Nordeste 26 Norte 0 -- -- 84
2020-01-19 04:00:00 8.3 4 Norte 18 Nordeste 0 -- -- 92
2020-01-19 03:00:00 7.8 0 Calma 14 Noroeste 0 -- -- 93
2020-01-19 02:00:00 7.7 4 Norte 13 Nordeste 0 -- -- 93
2020-01-19 01:00:00 7.9 3 Norte 17 Noroeste 0 -- -- 93
2020-01-19 00:00:00 8.3 6 Norte 19 Noroeste 0 -- -- 95
2020-01-18 23:00:00 8.4 6 Noroeste 12 Norte 0.4 -- -- 97
2020-01-18 22:00:00 8.4 0 Calma 20 Noroeste 1 -- -- 97
2020-01-18 21:00:00 8.5 10 Oeste 30 Noroeste 0.4 -- -- 96
2020-01-18 20:00:00 8.3 15 Noroeste 30 Oeste 1.8 -- -- 95
2020-01-18 19:00:00 8.5 13 Oeste 30 Oeste 0.4 -- -- 94
2020-01-18 18:00:00 9 13 Oeste 35 Noroeste 0.8 -- -- 90
2020-01-18 17:00:00 9.4 14 Oeste 33 Oeste 0.2 -- -- 88
2020-01-18 16:00:00 9.9 11 Oeste 31 Noroeste 0.2 -- -- 91
2020-01-18 15:00:00 9.6 21 Noroeste 46 Noroeste 1.8 -- -- 94
2020-01-18 14:00:00 10.5 15 Oeste 46 Oeste 0.4 -- -- 96
2020-01-18 13:00:00 10.9 18 Oeste 49 Oeste 3.6 -- -- 98
2020-01-18 12:00:00 11.2 9 Oeste 26 Sudoeste 2.2 -- -- 98
2020-01-18 11:00:00 10.8 11 Sur 28 Sudoeste 0.4 -- -- 96
2020-01-18 10:00:00 10.6 9 Sur 29 Sur 0.4 -- -- 94
2020-01-18 09:00:00 10.6 12 Sur 30 Sur 0 -- -- 91
2020-01-18 08:00:00 10.6 11 Sur 31 Sudoeste 0 -- -- 88
2020-01-18 07:00:00 10.5 12 Sur 30 Sur 0 -- -- 85
2020-01-18 06:00:00 10 10 Sur 34 Sudeste 0 -- -- 85
2020-01-18 05:00:00 9.8 15 Sudeste 37 Sudeste 0 -- -- 81
2020-01-18 04:00:00 9.9 8 Sudeste 22 Sudeste 0 -- -- 75
2020-01-18 03:00:00 9.2 11 Sudeste 33 Sur 0 -- -- 74
2020-01-18 02:00:00 8.6 14 Sudeste 26 Sur 0 -- -- 76
2020-01-18 01:00:00 8.2 6 Sudeste 17 Sur 0 -- -- 78
2020-01-18 00:00:00 6.5 4 Este 8 Este 0 -- -- 90
2020-01-17 23:00:00 5.9 2 Este 5 Este 0 -- -- 94
2020-01-17 22:00:00 6.2 2 Noroeste 5 Sudoeste 0 -- -- 94
2020-01-17 21:00:00 6.4 0 Calma 5 Sudoeste 0 -- -- 93
2020-01-17 20:00:00 6.6 2 Noroeste 7 Este 0 -- -- 93
2020-01-17 19:00:00 7.3 0 Calma 3 Nordeste 0 -- -- 90
2020-01-17 18:00:00 8.2 0 Calma 2 Nordeste 0 -- -- 87
2020-01-17 17:00:00 9 0 Calma 5 Sudoeste 0 -- -- 79
2020-01-17 16:00:00 9.3 3 Sur 10 Oeste 0 -- -- 74
2020-01-17 15:00:00 9.3 5 Sudoeste 13 Oeste 0 -- -- 78
2020-01-17 14:00:00 9.1 4 Oeste 11 Sudoeste 0 -- -- 80
2020-01-17 13:00:00 8.6 3 Sur 7 Sur 0 -- -- 89
2020-01-17 12:00:00 8.1 5 Sur 9 Sur 0 -- -- 95
2020-01-17 11:00:00 6.7 3 Sudeste 4 Sur 0 -- -- 98
2020-01-17 10:00:00 5 0 Calma 2 Noroeste 0 -- -- 97
2020-01-17 09:00:00 5.6 0 Calma 8 Noroeste 0 -- -- 96
2020-01-17 08:00:00 6.5 6 Noroeste 9 Oeste 0.4 -- -- 95
2020-01-17 07:00:00 7 4 Oeste 14 Oeste 0.2 -- -- 94
2020-01-17 06:00:00 6.9 4 Oeste 11 Oeste 0 -- -- 96
2020-01-17 05:00:00 7.2 3 Oeste 11 Oeste 0 -- -- 96
2020-01-17 04:00:00 7.6 4 Oeste 12 Oeste 0.2 -- -- 97
2020-01-17 03:00:00 7.4 4 Sudoeste 11 Sudoeste 0.2 -- -- 97
2020-01-17 02:00:00 7.7 2 Sudoeste 14 Oeste 0 -- -- 96
2020-01-17 01:00:00 7.9 5 Sudoeste 29 Sudoeste 0.6 -- -- 95
2020-01-17 00:00:00 8.9 13 Oeste 31 Sudoeste 1.2 -- -- 98
2020-01-16 23:00:00 9 12 Oeste 31 Oeste 9.6 -- -- 98
2020-01-16 22:00:00 9.3 4 Sudoeste 18 Sudoeste 0.8 -- -- 98
2020-01-16 21:00:00 9 11 Sudoeste 21 Sudoeste 0.6 -- -- 98
2020-01-16 20:00:00 8.7 4 Sudoeste 11 Sudoeste 0.6 -- -- 98
2020-01-16 19:00:00 8.4 6 Sudoeste 12 Sudoeste 1 -- -- 97
2020-01-16 18:00:00 8.4 3 Sur 36 Noroeste 11.2 -- -- 95
2020-01-16 17:00:00 9.9 12 Sur 47 Sur 4.4 -- -- 94
2020-01-16 16:00:00 10.4 19 Sur 49 Sur 2 -- -- 92
2020-01-16 15:00:00 11.1 13 Sur 45 Sudoeste 2.6 -- -- 94
2020-01-16 14:00:00 11.3 17 Sur 46 Sudoeste 5.4 -- -- 94
2020-01-16 13:00:00 11.9 21 Sudoeste 46 Sur 1.2 -- -- 92
2020-01-16 12:00:00 12.4 24 Sudoeste 56 Sudoeste 0.2 -- -- 90
2020-01-16 11:00:00 12.6 23 Sudoeste 51 Sudoeste 0.6 -- -- 91
2020-01-16 10:00:00 12.7 22 Sudoeste 58 Sudoeste 0 -- -- 91
2020-01-16 09:00:00 12.1 18 Sudoeste 48 Sudoeste 1.6 -- -- 95
2020-01-16 08:00:00 11.8 17 Sudoeste 44 Sudoeste 4.6 -- -- 95
2020-01-16 07:00:00 12.2 16 Sudoeste 47 Sur 1.2 -- -- 92
2020-01-16 06:00:00 12.2 18 Sur 47 Sudoeste 0.4 -- -- 94
2020-01-16 05:00:00 12.4 16 Sudoeste 59 Sudoeste 0.2 -- -- 95
2020-01-16 04:00:00 12.6 16 Sudoeste 42 Sur 0.4 -- -- 96
2020-01-16 03:00:00 12.5 15 Sudoeste 36 Sur 3 -- -- 95
2020-01-16 02:00:00 12.4 13 Sur 28 Sudoeste 0 -- -- 92
2020-01-16 01:00:00 12.2 13 Sur 50 Sudoeste 0 -- -- 87
2020-01-16 00:00:00 12.3 19 Sudoeste 50 Sur 0 -- -- 87
2020-01-15 23:00:00 12.8 17 Sur 37 Sudoeste 0 -- -- 88
2020-01-15 22:00:00 12.4 8 Sudoeste 27 Sudoeste 0 -- -- 92
2020-01-15 21:00:00 12.1 7 Sur 18 Sur 0 -- -- 91
2020-01-15 20:00:00 11.9 7 Sur 22 Sudeste 0 -- -- 87
2020-01-15 19:00:00 10.9 3 Sur 19 Sur 0 -- -- 87
2020-01-15 18:00:00 11.5 4 Sur 16 Sudoeste 0 -- -- 83
2020-01-15 17:00:00 12.3 6 Sur 22 Sur 0 -- -- 79
2020-01-15 16:00:00 12.9 10 Sudoeste 27 Sudoeste 0 -- -- 77
2020-01-15 15:00:00 12.6 9 Sudoeste 26 Sudoeste 0 -- -- 80
2020-01-15 14:00:00 12.2 10 Sudoeste 23 Sudoeste 0 -- -- 81
2020-01-15 13:00:00 11.4 6 Sudoeste 12 Sur 0 -- -- 86
2020-01-15 12:00:00 9.7 0 Calma 4 Sudeste 0 -- -- 99
2020-01-15 11:00:00 8.7 2 Noroeste 4 Noroeste 0.2 -- -- 99
2020-01-15 10:00:00 8.4 0 Calma 5 Noroeste 0 -- -- 98
2020-01-15 09:00:00 8.8 3 Oeste 9 Sudoeste 0 -- -- 97
2020-01-15 08:00:00 9.2 3 Sudoeste 34 Oeste 3 -- -- 97
2020-01-15 07:00:00 10.6 8 Sudoeste 32 Sudoeste 5 -- -- 97
2020-01-15 06:00:00 10.9 15 Sudoeste 34 Sudoeste 0.6 -- -- 96
2020-01-15 05:00:00 11.2 21 Sudoeste 42 Sudoeste 5.6 -- -- 96
2020-01-15 04:00:00 11.1 21 Sudoeste 59 Sudoeste 4.8 -- -- 95
2020-01-15 03:00:00 11.2 20 Sudoeste 59 Sur 2.4 -- -- 92
2020-01-15 02:00:00 11.7 20 Sudoeste 46 Sur 0.4 -- -- 90
2020-01-15 01:00:00 11.5 22 Sudoeste 53 Sudoeste 1.2 -- -- 92
2020-01-15 00:00:00 11.8 18 Sudoeste 52 Sudoeste 0 -- -- 88
2020-01-14 23:00:00 11.4 22 Sudoeste 52 Sudoeste 0.4 -- -- 91
2020-01-14 22:00:00 11.5 14 Sudoeste 38 Sudoeste 0 -- -- 87
2020-01-14 21:00:00 11.2 17 Sudoeste 42 Sur 0 -- -- 86
2020-01-14 20:00:00 11.5 18 Sudoeste 45 Sudoeste 0 -- -- 81
2020-01-14 19:00:00 11.3 19 Sudoeste 49 Sudoeste 0 -- -- 80
2020-01-14 18:00:00 11.4 20 Sudoeste 48 Sudoeste 0 -- -- 81
2020-01-14 17:00:00 11.7 21 Sudoeste 46 Sudoeste 0 -- -- 82
2020-01-14 16:00:00 11.9 18 Sur 50 Sudoeste 0 -- -- 82
2020-01-14 15:00:00 11.6 21 Sur 50 Sudoeste 0 -- -- 84
2020-01-14 14:00:00 11.7 21 Sur 44 Sudoeste 0 -- -- 83
2020-01-14 13:00:00 11.3 15 Sur 32 Sur 0 -- -- 85
2020-01-14 12:00:00 10.9 16 Sur 39 Sur 0 -- -- 86
2020-01-14 11:00:00 10.3 15 Sur 37 Sur 0 -- -- 88
2020-01-14 10:00:00 10 14 Sur 41 Sudoeste 0 -- -- 89
2020-01-14 09:00:00 9.8 14 Sur 40 Sudoeste 0 -- -- 89
2020-01-14 08:00:00 9.5 11 Sur 33 Sur 0 -- -- 90
2020-01-14 07:00:00 9.3 11 Sur 32 Sudeste 0 -- -- 90
2020-01-14 06:00:00 9.3 13 Sur 31 Sudoeste 0 -- -- 90
2020-01-14 05:00:00 9.3 12 Sur 38 Sur 0 -- -- 91
2020-01-14 04:00:00 9.3 17 Sur 36 Sur 0.2 -- -- 92
2020-01-14 03:00:00 8.9 16 Sur 35 Sur 0 -- -- 95
2020-01-14 02:00:00 8.9 13 Sur 36 Sudoeste 0 -- -- 94
2020-01-14 01:00:00 8.8 16 Sur 38 Sudoeste 0 -- -- 95
2020-01-14 00:00:00 8.6 13 Sur 33 Sudeste 0 -- -- 93
2020-01-13 23:00:00 8.5 9 Sudoeste 33 Sudoeste 0 -- -- 93
2020-01-13 22:00:00 8.2 12 Sur 32 Sudoeste 0 -- -- 94
2020-01-13 21:00:00 7.9 12 Sur 31 Sudeste 0 -- -- 93
2020-01-13 20:00:00 7.9 10 Sur 32 Sur 0 -- -- 89
2020-01-13 19:00:00 7.9 12 Sur 28 Sur 0 -- -- 86
2020-01-13 18:00:00 8 11 Sur 29 Sur 0 -- -- 83
2020-01-13 17:00:00 8.1 10 Sur 25 Sudoeste 0 -- -- 81
2020-01-13 16:00:00 8.3 13 Sur 37 Sur 0 -- -- 79
2020-01-13 15:00:00 8.5 14 Sur 34 Sudoeste 0 -- -- 75
2020-01-13 14:00:00 9.9 16 Sudoeste 32 Sur 0 -- -- 70
2020-01-13 13:00:00 8.9 17 Sur 40 Sudoeste 0 -- -- 75
2020-01-13 12:00:00 8.3 8 Sur 30 Sudoeste 0 -- -- 76
2020-01-13 11:00:00 7 5 Sur 15 Sur 0 -- -- 74
2020-01-13 10:00:00 6 3 Sur 16 Sudoeste 0 -- -- 83
2020-01-13 09:00:00 6.2 5 Sudoeste 13 Sudoeste 0 -- -- 82
2020-01-13 08:00:00 6.4 5 Oeste 13 Oeste 0 -- -- 85
2020-01-13 07:00:00 5.6 2 Sudeste 6 Sudoeste 0 -- -- 95
2020-01-13 06:00:00 5.2 0 Calma 4 Este 0 -- -- 96
2020-01-13 05:00:00 4.9 2 Este 7 Noroeste 0 -- -- 96
2020-01-13 04:00:00 4.7 0 Calma 5 Noroeste 0 -- -- 96
2020-01-13 03:00:00 4.9 3 Norte 6 Noroeste 0 -- -- 95
2020-01-13 02:00:00 5 2 Noroeste 7 Norte 0 -- -- 94
2020-01-13 01:00:00 4.7 5 Noroeste 7 Noroeste 0 -- -- 96
2020-01-13 00:00:00 4.1 0 Calma 5 Noroeste 0 -- -- 95
2020-01-12 23:00:00 3.9 0 Calma 9 Noroeste 0 -- -- 94
2020-01-12 22:00:00 2.9 0 Calma 6 Noroeste 0 -- -- 95
2020-01-12 21:00:00 3.2 2 Nordeste 6 Este 0 -- -- 92
2020-01-12 20:00:00 4.8 0 Calma 5 Noroeste 0 -- -- 89
2020-01-12 19:00:00 7.2 2 Sudeste 7 Sudoeste 0 -- -- 82
2020-01-12 18:00:00 9.6 3 Sur 10 Oeste 0 -- -- 71
2020-01-12 17:00:00 10.9 3 Sudoeste 10 Sudoeste 0 -- -- 60
2020-01-12 16:00:00 12 6 Sudoeste 14 Oeste 0 -- -- 58
2020-01-12 15:00:00 12.2 5 Sudoeste 12 Sudoeste 0 -- -- 53
2020-01-12 14:00:00 12.3 6 Sudoeste 12 Sudoeste 0 -- -- 57
2020-01-12 13:00:00 11.1 4 Sudoeste 7 Sudoeste 0 -- -- 63
2020-01-12 12:00:00 7.6 0 Calma 3 Noroeste 0 -- -- 79
2020-01-12 11:00:00 2.9 0 Calma 10 Noroeste 0 -- -- 95
2020-01-12 10:00:00 -0.1 0 Calma 8 Norte 0 -- -- 98
2020-01-12 09:00:00 -1.6 4 Norte 8 Nordeste 0 -- -- 97
2020-01-12 08:00:00 -1.5 3 Norte 9 Nordeste 0 -- -- 96
2020-01-12 07:00:00 -0.8 3 Nordeste 10 Nordeste 0 -- -- 98
2020-01-12 06:00:00 -1.5 3 Norte 9 Norte 0 -- -- 98
2020-01-12 05:00:00 -1.7 3 Norte 9 Noroeste 0 -- -- 98
2020-01-12 04:00:00 -1.6 3 Norte 8 Norte 0 -- -- 98
2020-01-12 03:00:00 -0.9 3 Norte 8 Nordeste 0 -- -- 98
2020-01-12 02:00:00 -0.6 6 Noroeste 10 Noroeste 0 -- -- 97
2020-01-12 01:00:00 -0.6 5 Noroeste 8 Noroeste 0 -- -- 97
2020-01-12 00:00:00 -0.5 0 Calma 6 Noroeste 0 -- -- 97
2020-01-11 23:00:00 0.1 4 Noroeste 9 Noroeste 0 -- -- 96
2020-01-11 22:00:00 0.6 3 Noroeste 7 Noroeste 0 -- -- 95
2020-01-11 21:00:00 1.7 3 Norte 6 Noroeste 0 -- -- 93
2020-01-11 20:00:00 3.4 4 Noroeste 7 Norte 0 -- -- 90
2020-01-11 19:00:00 6.2 0 Calma 4 Noroeste 0 -- -- 83
2020-01-11 18:00:00 9.9 2 Sur 6 Sudoeste 0 -- -- 66
2020-01-11 17:00:00 11 3 Sudoeste 11 Oeste 0 -- -- 60
2020-01-11 16:00:00 11.8 4 Oeste 10 Sudoeste 0 -- -- 57
2020-01-11 15:00:00 12 7 Sudoeste 12 Sudoeste 0 -- -- 55
2020-01-11 14:00:00 11.9 6 Oeste 13 Sudoeste 0 -- -- 57
2020-01-11 13:00:00 11.4 4 Sudoeste 8 Oeste 0 -- -- 60
2020-01-11 12:00:00 9.4 3 Nordeste 16 Nordeste 0 -- -- 72
2020-01-11 11:00:00 5.2 3 Noroeste 10 Nordeste 0 -- -- 91
2020-01-11 10:00:00 1.8 5 Norte 12 Nordeste 0 -- -- 97
2020-01-11 09:00:00 1.4 4 Nordeste 13 Nordeste 0 -- -- 98
2020-01-11 08:00:00 -0.3 4 Norte 10 Nordeste 0 -- -- 97
2020-01-11 07:00:00 -0.2 4 Norte 8 Norte 0 -- -- 97
2020-01-11 06:00:00 1.1 4 Norte 11 Nordeste 0 -- -- 97
2020-01-11 05:00:00 1.6 4 Nordeste 12 Nordeste 0 -- -- 97
2020-01-11 04:00:00 2.1 4 Norte 10 Nordeste 0 -- -- 98
2020-01-11 03:00:00 1.3 3 Norte 8 Norte 0 -- -- 98
2020-01-11 02:00:00 1.5 4 Noroeste 9 Norte 0 -- -- 98
2020-01-11 01:00:00 0.5 5 Noroeste 9 Noroeste 0 -- -- 96
2020-01-11 00:00:00 0.2 5 Noroeste 8 Norte 0 -- -- 95
2020-01-10 23:00:00 1.9 5 Noroeste 8 Noroeste 0 -- -- 93
2020-01-10 22:00:00 3.4 5 Noroeste 14 Este 0 -- -- 90
2020-01-10 21:00:00 4.3 7 Este 17 Este 0 -- -- 89
2020-01-10 20:00:00 4 4 Nordeste 9 Nordeste 0 -- -- 89
2020-01-10 19:00:00 6 4 Nordeste 9 Nordeste 0 -- -- 84
2020-01-10 18:00:00 8.6 0 Calma 19 Nordeste 0 -- -- 72
2020-01-10 17:00:00 9.7 6 Este 18 Este 0 -- -- 66
2020-01-10 16:00:00 10.1 8 Este 19 Este 0 -- -- 65
2020-01-10 15:00:00 9.4 6 Nordeste 17 Este 0 -- -- 70
2020-01-10 14:00:00 9.4 9 Este 21 Este 0 -- -- 72
2020-01-10 13:00:00 9.1 9 Este 23 Este 0 -- -- 74
2020-01-10 12:00:00 8.1 8 Norte 20 Noroeste 0.2 -- -- 93
2020-01-10 11:00:00 6.1 4 Nordeste 17 Este 0 -- -- 100
2020-01-10 10:00:00 1.9 0 Calma 8 Norte 0 -- -- 100
2020-01-10 09:00:00 1.6 4 Noroeste 6 Norte 0 -- -- 100
2020-01-10 08:00:00 1.7 0 Calma 5 Noroeste 0 -- -- 99
2020-01-10 07:00:00 1.4 0 Calma 6 Nordeste 0 -- -- 100
2020-01-10 06:00:00 0.8 0 Calma 6 Noroeste 0 -- -- 100
2020-01-10 05:00:00 1.4 3 Nordeste 8 Nordeste 0 -- -- 99
2020-01-10 04:00:00 1.7 3 Nordeste 7 Noroeste 0 -- -- 99
2020-01-10 03:00:00 1.8 0 Calma 6 Norte 0 -- -- 99
2020-01-10 02:00:00 2.7 0 Calma 4 Noroeste 0 -- -- 99
2020-01-10 01:00:00 4.1 2 Noroeste 6 Noroeste 0.2 -- -- 98
2020-01-10 00:00:00 4.5 3 Norte 8 Nordeste 0 -- -- 98
2020-01-09 23:00:00 4.4 2 Noroeste 5 Noroeste 0.2 -- -- 98
2020-01-09 22:00:00 5.1 2 Noroeste 8 Noroeste 0 -- -- 97
2020-01-09 21:00:00 5.4 2 Sudeste 5 Sudeste 0 -- -- 94
2020-01-09 20:00:00 6.6 0 Calma 15 Noroeste 0 -- -- 87
2020-01-09 19:00:00 7.9 9 Noroeste 19 Oeste 0 -- -- 83
2020-01-09 18:00:00 8.7 4 Oeste 18 Oeste 0 -- -- 87
2020-01-09 17:00:00 9.2 8 Oeste 19 Oeste 0 -- -- 85
2020-01-09 16:00:00 9.4 8 Oeste 32 Noroeste 0 -- -- 92
2020-01-09 15:00:00 10.3 24 Noroeste 50 Oeste 0.4 -- -- 95
2020-01-09 14:00:00 11 20 Oeste 47 Oeste 0.4 -- -- 99
2020-01-09 13:00:00 11.4 21 Oeste 42 Oeste 2.2 -- -- 100
2020-01-09 12:00:00 11.1 14 Sudoeste 31 Sudoeste 0.8 -- -- 100
2020-01-09 11:00:00 11 8 Sudoeste 24 Sur 2 -- -- 100
2020-01-09 10:00:00 10.8 12 Sur 32 Sudoeste 0.8 -- -- 100
2020-01-09 09:00:00 10.7 9 Sur 23 Sudoeste 0.4 -- -- 100
2020-01-09 08:00:00 10.8 8 Sudoeste 19 Sur 0 -- -- 100
2020-01-09 07:00:00 10.7 5 Sudoeste 18 Sudoeste 0.2 -- -- 100
2020-01-09 06:00:00 10.8 5 Sur 11 Sur 0 -- -- 100
2020-01-09 05:00:00 10.7 5 Sudoeste 16 Sudoeste 0.8 -- -- 100
2020-01-09 04:00:00 11 6 Sudoeste 14 Sudoeste 0 -- -- 100
2020-01-09 03:00:00 11.1 8 Sudoeste 16 Sudoeste 0 -- -- 100
2020-01-09 02:00:00 10.7 0 Calma 4 Sur 0 -- -- 100
2020-01-09 01:00:00 10.7 0 Calma 4 Sudeste 0.2 -- -- 99
2020-01-09 00:00:00 10.8 0 Calma 4 Sudeste 0 -- -- 99
2020-01-08 23:00:00 10.9 0 Calma 3 Noroeste 0 -- -- 99
2020-01-08 22:00:00 10.8 3 Norte 5 Sudeste 0 -- -- 99
2020-01-08 21:00:00 11.1 0 Calma 5 Sudoeste 0.4 -- -- 99
2020-01-08 20:00:00 11.5 3 Sudoeste 6 Sudoeste 0 -- -- 98
2020-01-08 19:00:00 11.6 3 Oeste 5 Oeste 0 -- -- 98
2020-01-08 18:00:00 12 0 Calma 6 Sudoeste 0.4 -- -- 97
2020-01-08 17:00:00 12.3 0 Calma 4 Sudeste 0 -- -- 95
2020-01-08 16:00:00 12.7 3 Sudoeste 12 Sudoeste 0 -- -- 91
2020-01-08 15:00:00 13.8 7 Sudoeste 13 Oeste 0 -- -- 87
2020-01-08 14:00:00 14.3 3 Sur 6 Sudoeste 0 -- -- 89
2020-01-08 13:00:00 13 0 Calma 5 Sudeste 0 -- -- 95
2020-01-08 12:00:00 11.7 2 Sur 5 Sudoeste 0 -- -- 96
2020-01-08 11:00:00 9.9 3 Noroeste 5 Noroeste 0 -- -- 99
2020-01-08 10:00:00 8.2 0 Calma 4 Noroeste 0 -- -- 98
2020-01-08 09:00:00 7.4 0 Calma 5 Norte 0 -- -- 98
2020-01-08 08:00:00 6.6 4 Norte 6 Noroeste 0 -- -- 98
2020-01-08 07:00:00 6.3 0 Calma 7 Noroeste 0 -- -- 98
2020-01-08 06:00:00 6 0 Calma 9 Noroeste 0 -- -- 98
2020-01-08 05:00:00 5 3 Este 5 Noroeste 0 -- -- 97
2020-01-08 04:00:00 5.2 0 Calma 7 Noroeste 0 -- -- 96
2020-01-08 03:00:00 4.9 3 Noroeste 9 Noroeste 0 -- -- 97
2020-01-08 02:00:00 3.8 2 Norte 6 Nordeste 0 -- -- 97
2020-01-08 01:00:00 2.9 4 Norte 9 Norte 0 -- -- 98
2020-01-08 00:00:00 3.1 2 Norte 9 Noroeste 0 -- -- 96
2020-01-07 23:00:00 2.8 2 Norte 8 Norte 0 -- -- 97
2020-01-07 22:00:00 2.8 4 Norte 8 Nordeste 0 -- -- 96
2020-01-07 21:00:00 4 3 Nordeste 6 Nordeste 0 -- -- 94
2020-01-07 20:00:00 5.1 0 Calma 5 Noroeste 0 -- -- 93
2020-01-07 19:00:00 7.9 0 Calma 3 Sur 0 -- -- 87
2020-01-07 18:00:00 10.2 4 Sudoeste 7 Oeste 0 -- -- 81
2020-01-07 17:00:00 11.4 5 Sudoeste 11 Sudoeste 0 -- -- 73
2020-01-07 16:00:00 12.9 7 Sudoeste 12 Sudoeste 0 -- -- 62
2020-01-07 15:00:00 13.3 6 Sudoeste 11 Sudoeste 0 -- -- 67
2020-01-07 14:00:00 12.3 3 Sudoeste 6 Sudoeste 0 -- -- 70
2020-01-07 13:00:00 10.3 3 Oeste 9 Sudoeste 0 -- -- 80
2020-01-07 12:00:00 8.4 3 Sudeste 7 Noroeste 0 -- -- 95
2020-01-07 11:00:00 2.9 2 Oeste 8 Norte 0 -- -- 100
2020-01-07 10:00:00 0.4 3 Noroeste 11 Noroeste 0 -- -- 100
2020-01-07 09:00:00 -1.3 0 Calma 8 Noroeste 0 -- -- 100
2020-01-07 08:00:00 -1.1 6 Noroeste 8 Noroeste 0 -- -- 100
2020-01-07 07:00:00 -1.2 3 Norte 6 Noroeste 0 -- -- 99
2020-01-07 06:00:00 -1.1 3 Norte 6 Nordeste 0 -- -- 99
2020-01-07 05:00:00 -1 2 Norte 9 Norte 0 -- -- 99
2020-01-07 04:00:00 -1 4 Noroeste 8 Noroeste 0 -- -- 98
2020-01-07 03:00:00 -0.5 0 Calma 6 Norte 0 -- -- 98
2020-01-07 02:00:00 -0.7 4 Norte 8 Noroeste 0 -- -- 99
2020-01-07 01:00:00 -0.4 0 Calma 8 Noroeste 0 -- -- 98
2020-01-07 00:00:00 1.1 6 Norte 11 Noroeste 0 -- -- 98
2020-01-06 23:00:00 1.3 5 Noroeste 22 Este 0 -- -- 95
2020-01-06 22:00:00 2.8 3 Noroeste 14 Nordeste 0 -- -- 94
2020-01-06 21:00:00 4.8 5 Nordeste 10 Este 0 -- -- 94
2020-01-06 20:00:00 5.6 3 Norte 7 Nordeste 0 -- -- 92
2020-01-06 19:00:00 7.2 0 Calma 3 Nordeste 0 -- -- 90
2020-01-06 18:00:00 8.3 0 Calma 11 Oeste 0 -- -- 85
2020-01-06 17:00:00 9.4 5 Oeste 14 Oeste 0 -- -- 79
2020-01-06 16:00:00 10.3 6 Oeste 14 Oeste 0 -- -- 76
2020-01-06 15:00:00 11 5 Sudoeste 13 Sudoeste 0 -- -- 75
2020-01-06 14:00:00 9.2 5 Sur 9 Sudeste 0 -- -- 88
2020-01-06 13:00:00 6.3 0 Calma 5 Noroeste 0 -- -- 99
2020-01-06 12:00:00 4.1 0 Calma 9 Noroeste 0 -- -- 100
2020-01-06 11:00:00 1.5 4 Noroeste 6 Noroeste 0.2 -- -- 100
2020-01-06 10:00:00 -0.3 6 Norte 10 Norte 0 -- -- 100